Rayong, Thailand
Current Conditions -  °F | °C
As of 10:30 PM on Friday 28 Nov 2014 (Local Time) from VTBU Reporting Station
Haze Haze  
Wind Chill: 81°   Ceiling: 30000
Heat Index: 87°   Visibility: 2.5mi
Dew Point: 77°   Wind: 5mph
Humidity: 89%   Direction: 50°NE
Pressure: 29.83"   Gusts: NA
Location:  12.67°N, 101.28°E
Report Text: VTBU 281530Z 05004KT 4000 BR FEW020 BKN300 27/25 Q1010 A2985
Loading
Personal Weather Stations






























Interactive Weather Map New forecast layout! Learn more

10-Day Weather Forecast

Advertisements
Track Severe Weather on mobile